ADDS METAR Data INFO
IDs: Format: Raw Decoded Include TAF

Data at: 1920 UTC 19 Jul 2018

KARG 191856Z AUTO 17005KT 10SM 32/25 A2990 RMK AO2 SLP122 T03170250 $
KARG 191756Z AUTO 18009KT 10SM 31/24 A2990 RMK AO2 SLP125 T03110239 10317 20233 58005 $
KARG 191656Z AUTO 18007KT 10SM 31/24 A2991 RMK AO2 SLP127 T03060239 $
KARG 191556Z AUTO 15009KT 10SM 29/24 A2992 RMK AO2 SLP130 T02940244 $
KARG 191456Z AUTO VRB05KT 10SM 28/24 A2992 RMK AO2 SLP130 T02830239 58009 $
KARG 191356Z AUTO 14003KT 10SM 26/24 A2994 RMK AO2 SLP137 T02610239 $
KARG 191256Z AUTO 16003KT 9SM 24/23 A2995 RMK AO2 SLP140 T02440233 $
KARG 191156Z AUTO 35003KT 5SM BR 23/23 A2995 RMK AO2 SLP139 T02330233 10244 20222 53008 $
KARG 191131Z AUTO 00000KT 3SM BR 23/23 A2994 RMK AO2 $
KARG 191129Z AUTO 00000KT 1SM BR 23/23 A2994 RMK AO2 VIS 1/4V5 RVRNO $
KARG 191121Z AUTO 00000KT 1/2SM FG 23/22 A2994 RMK AO2 RVRNO $
KARG 191056Z AUTO 00000KT 1/4SM FG 23/22 A2994 RMK AO2 SLP135 T02280222 RVRNO $
KARG 191045Z AUTO 00000KT 1/2SM FG 23/22 A2992 RMK AO2 RVRNO $
KARG 191037Z AUTO 00000KT 1SM BR 22/22 A2993 RMK AO2 RVRNO $
KARG 191034Z AUTO 00000KT 1/2SM FG 22/22 A2993 RMK AO2 RVRNO $
KARG 191020Z AUTO 01003KT 1/4SM FG 22/22 A2992 RMK AO2 RVRNO $
KARG 191012Z AUTO 00000KT 3/4SM BR 23/23 A2992 RMK AO2 RVRNO $
KARG 191008Z AUTO 00000KT 1 1/2SM BR 23/23 A2992 RMK AO2 $
KARG 190958Z AUTO 00000KT 4SM BR 23/23 A2992 RMK AO2 $
KARG 190956Z AUTO 00000KT 1 3/4SM BR 23/23 A2992 RMK AO2 VIS 1/2V5 SLP131 T02330228 $
KARG 190953Z AUTO 00000KT 1SM BR 23/23 A2992 RMK AO2 VIS 1/2V5 RVRNO $
KARG 190943Z AUTO 00000KT 1/2SM FG 23/23 A2992 RMK AO2 RVRNO $
KARG 190934Z AUTO 00000KT 2SM BR 23/23 A2992 RMK AO2 VIS 3/4V5 $
KARG 190912Z AUTO 00000KT 6SM BR 23/23 A2992 RMK AO2 $
KARG 190856Z AUTO 00000KT 2 1/2SM BR 23/23 A2992 RMK AO2 SLP131 T02330233 58009 $
KARG 190756Z AUTO 06003KT 9SM 24/23 A2994 RMK AO2 SLP135 T02390233 $
KARG 190656Z AUTO 03004KT 10SM 24/23 A2996 RMK AO2 SLP142 T02440233 $
KARG 190556Z AUTO 00000KT 10SM 24/23 A2995 RMK AO2 SLP140 60000 T02390233 10256 20239 50000 $
KARG 190456Z AUTO 13003KT 10SM 24/23 A2995 RMK AO2 SLP140 T02390233 403170239 $
KARG 190356Z AUTO 00000KT 10SM 24/23 A2995 RMK AO2 SLP142 T02390233 $
KARG 190256Z AUTO 04003KT 10SM 24/23 A2995 RMK AO2 SLP140 60000 T02440233 53005 $
KARG 190156Z AUTO 00000KT 10SM 24/23 A2994 RMK AO2 SLP137 T02440233 $
KARG 190056Z AUTO 00000KT 10SM 26/23 A2994 RMK AO2 RAE15 SLP137 P0000 T02560233 $
KARG 182356Z AUTO 00000KT 10SM -RA 25/23 A2994 RMK AO2 RAB32 SLP135 P0000 60000 T02500233 10317 20250 56011 $
KARG 182256Z AUTO 18005KT 10SM 26/23 A2994 RMK AO2 LTG DSNT NW SLP138 T02560228 $
KARG 182156Z AUTO 17007KT 10SM 26/23 A2993 RMK AO2 TSE24 SLP135 T02610233 $
KARG 182130Z AUTO 20010KT 10SM 26/24 A2995 RMK AO2 TSE24 $
KARG 182056Z AUTO 17007KT 10SM VCTS 27/23 A2997 RMK AO2 LTG DSNT S AND SW TSB47RAB1957E12 SLP146 P0000 60000 T02670233 53004 $
KARG 182053Z AUTO 17008KT 10SM VCTS 27/23 A2997 RMK AO2 LTG DSNT S AND SW TSB47RAB1957E12 P0000 $
KARG 181956Z AUTO 06008KT 10SM 29/25 A2995 RMK AO2 LTG DSNT SE-W TSB1859E14RAE01 SLP141 P0000 T02940250 $
KARG 181920Z AUTO 05010KT 10SM 31/25 A2994 RMK AO2 LTG DSNT SE-W TSB1859E14RAE01 P0000 $
KARG 181905Z AUTO 06010KT 9SM VCTS 30/26 A2995 RMK AO2 LTG DSNT SE-W TSB1859RAE01 P0000 $
KARG 181856Z AUTO 04010KT 10SM -RA 31/25 A2996 RMK AO2 LTG DSNT SE-W RAB36 SLP142 P0000 T03060250 $
KARG 181756Z AUTO 06006KT 10SM 31/24 A2999 RMK AO2 SLP154 T03060244 10311 20256 58006 $
KARG 181656Z AUTO 10007KT 10SM 29/24 A3000 RMK AO2 SLP156 T02940244 $
KARG 181556Z AUTO 09006KT 10SM 29/24 A3001 RMK AO2 SLP160 T02890239 $
KARG 181456Z AUTO 09006KT 10SM 28/23 A3001 RMK AO2 SLP159 T02780233 58001 $
KARG 181356Z AUTO 05005KT 10SM 27/24 A3002 RMK AO2 SLP165 T02670239 $
KARG 181256Z AUTO 07006KT 10SM 26/24 A3001 RMK AO2 SLP162 T02560239 $
KARG 181156Z AUTO 04004KT 10SM 25/24 A3001 RMK AO2 SLP160 T02500239 10267 20250 53006 $
KARG 181056Z AUTO 05006KT 10SM 25/24 A2999 RMK AO2 SLP155 T02500239 $
KARG 180956Z AUTO 05005KT 10SM 25/24 A2999 RMK AO2 SLP153 T02500239 $
KARG 180856Z AUTO 03006KT 10SM 26/24 A2999 RMK AO2 SLP153 T02560239 53001 $
KARG 180756Z AUTO 03005KT 10SM 26/24 A2998 RMK AO2 SLP150 T02610244 $